createdAt,value
2016-05-15T00:00:01.606Z,78.85
2016-05-15T00:00:11.606Z,79.33
2016-05-15T00:00:21.608Z,79.42
2016-05-15T00:00:31.624Z,79.42
2016-05-15T00:00:41.468Z,79.23
2016-05-15T00:00:51.624Z,79.23
2016-05-15T00:01:01.640Z,79.23
2016-05-15T00:01:11.640Z,79.23
2016-05-15T00:01:21.658Z,78.85
2016-05-15T00:01:31.643Z,79.33
2016-05-15T00:01:41.658Z,79.42
2016-05-15T00:01:51.658Z,79.23
2016-05-15T00:02:01.658Z,79.23
2016-05-15T00:02:11.502Z,78.75
2016-05-15T00:02:21.676Z,78.75
2016-05-15T00:02:31.676Z,78.95
2016-05-15T00:02:41.676Z,79.23
2016-05-15T00:02:51.676Z,79.14
2016-05-15T00:03:01.535Z,79.14
2016-05-15T00:03:11.692Z,79.04
2016-05-15T00:03:21.696Z,79.23
2016-05-15T00:03:31.696Z,79.04
2016-05-15T00:03:41.711Z,79.04
2016-05-15T00:03:51.789Z,79.23
2016-05-15T00:04:02.258Z,79.33
2016-05-15T00:04:11.836Z,79.42
2016-05-15T00:04:22.214Z,79.04
2016-05-15T00:04:31.730Z,79.33
2016-05-15T00:04:41.574Z,79.14
2016-05-15T00:04:51.730Z,79.33
2016-05-15T00:05:01.589Z,79.33
2016-05-15T00:05:11.745Z,79.33
2016-05-15T00:05:21.747Z,79.42
2016-05-15T00:05:31.747Z,79.04
2016-05-15T00:05:41.747Z,78.95
2016-05-15T00:05:51.779Z,78.95
2016-05-15T00:06:01.763Z,79.04
2016-05-15T00:06:11.763Z,79.04
2016-05-15T00:06:21.766Z,79.04
2016-05-15T00:06:31.766Z,79.14
2016-05-15T00:06:41.625Z,79.04
2016-05-15T00:06:51.782Z,78.95
2016-05-15T00:07:01.782Z,79.04
2016-05-15T00:07:11.797Z,79.04
2016-05-15T00:07:21.643Z,78.95
2016-05-15T00:07:31.815Z,79.04
2016-05-15T00:07:41.799Z,79.14
2016-05-15T00:07:51.799Z,79.14
2016-05-15T00:08:01.815Z,79.14
2016-05-15T00:08:11.815Z,78.95
2016-05-15T00:08:21.817Z,78.95
2016-05-15T00:08:31.817Z,78.95
2016-05-15T00:08:41.833Z,78.95
2016-05-15T00:08:51.833Z,78.95
2016-05-15T00:09:01.848Z,78.85
2016-05-15T00:09:11.833Z,78.95
2016-05-15T00:09:21.851Z,78.85
2016-05-15T00:09:31.851Z,79.04
2016-05-15T00:09:41.851Z,79.04
2016-05-15T00:09:51.851Z,79.04
2016-05-15T00:10:01.867Z,79.33
2016-05-15T00:10:11.867Z,79.23
2016-05-15T00:10:21.715Z,79.14
2016-05-15T00:10:31.871Z,79.14
2016-05-15T00:10:41.871Z,79.14
2016-05-15T00:10:51.871Z,79.71
2016-05-15T00:11:01.886Z,79.42
2016-05-15T00:11:11.886Z,79.61
2016-05-15T00:11:21.888Z,79.61
2016-05-15T00:11:31.904Z,79.33
2016-05-15T00:11:41.904Z,79.52
2016-05-15T00:11:51.920Z,79.33
2016-05-15T00:12:01.904Z,79.14
2016-05-15T00:12:11.763Z,79.33
2016-05-15T00:12:21.923Z,79.14
2016-05-15T00:12:31.923Z,79.52
2016-05-15T00:12:41.923Z,79.8
2016-05-15T00:12:51.923Z,79.9
2016-05-15T00:13:01.938Z,79.61
2016-05-15T00:13:11.938Z,79.61
2016-05-15T00:13:21.940Z,79.33
2016-05-15T00:13:31.956Z,79.33
2016-05-15T00:13:41.800Z,79.52
2016-05-15T00:13:51.956Z,79.23
2016-05-15T00:14:01.956Z,79.33
2016-05-15T00:14:11.956Z,79.61
2016-05-15T00:14:21.975Z,79.61
2016-05-15T00:14:31.834Z,79.42
2016-05-15T00:14:41.990Z,79.14
2016-05-15T00:14:51.834Z,79.52
2016-05-15T00:15:01.990Z,79.42
2016-05-15T00:15:12.006Z,79.42
2016-05-15T00:15:21.993Z,79.52
2016-05-15T00:15:32.009Z,79.61
2016-05-15T00:15:42.009Z,79.52
2016-05-15T00:15:52.024Z,79.52
2016-05-15T00:16:02.009Z,79.61
2016-05-15T00:16:12.009Z,79.52
2016-05-15T00:16:21.870Z,79.71
2016-05-15T00:16:32.026Z,79.9
2016-05-15T00:16:42.026Z,79.61
2016-05-15T00:16:52.026Z,79.9
2016-05-15T00:17:01.886Z,79.8
2016-05-15T00:17:12.042Z,79.9
2016-05-15T00:17:21.889Z,79.71
2016-05-15T00:17:32.061Z,79.71
2016-05-15T00:17:42.061Z,79.9
2016-05-15T00:17:52.061Z,79.8
2016-05-15T00:18:02.061Z,79.8
2016-05-15T00:18:12.061Z,79.9
2016-05-15T00:18:22.079Z,79.8
2016-05-15T00:18:32.376Z,79.61
2016-05-15T00:18:42.204Z,79.9
2016-05-15T00:18:52.454Z,80.08
2016-05-15T00:19:02.376Z,80.18
2016-05-15T00:19:12.251Z,80.27
2016-05-15T00:19:22.425Z,79.57
2016-05-15T00:19:32.097Z,80.18
2016-05-15T00:19:42.097Z,80.08
2016-05-15T00:19:52.097Z,80.27
2016-05-15T00:20:02.113Z,79.71
2016-05-15T00:20:11.956Z,80.37
2016-05-15T00:20:22.116Z,80.37
2016-05-15T00:20:32.131Z,79.9
2016-05-15T00:20:42.131Z,79.99
2016-05-15T00:20:52.131Z,80.08
2016-05-15T00:21:02.131Z,80.08
2016-05-15T00:21:12.147Z,79.57
2016-05-15T00:21:22.150Z,79.99
2016-05-15T00:21:32.150Z,80.08
2016-05-15T00:21:42.150Z,79.61
2016-05-15T00:21:52.165Z,80.18
2016-05-15T00:22:02.025Z,79.9
2016-05-15T00:22:12.165Z,79.9
2016-05-15T00:22:22.167Z,79.99
2016-05-15T00:22:32.183Z,79.99
2016-05-15T00:22:42.183Z,79.99
2016-05-15T00:22:52.183Z,80.27
2016-05-15T00:23:02.199Z,79.9
2016-05-15T00:23:12.183Z,80.56
2016-05-15T00:23:22.203Z,79.99
2016-05-15T00:23:32.203Z,80.37
2016-05-15T00:23:42.203Z,79.52
2016-05-15T00:23:52.203Z,80.27
2016-05-15T00:24:02.203Z,79.8
2016-05-15T00:24:12.218Z,80.04
2016-05-15T00:24:22.220Z,80.04
2016-05-15T00:24:32.220Z,80.37
2016-05-15T00:24:42.236Z,80.18
2016-05-15T00:24:52.236Z,80.46
2016-05-15T00:25:02.252Z,80.46
2016-05-15T00:25:12.236Z,80.46
2016-05-15T00:25:22.239Z,80.37
2016-05-15T00:25:32.255Z,80.08
2016-05-15T00:25:42.114Z,80.27
2016-05-15T00:25:52.255Z,80.33
2016-05-15T00:26:02.270Z,80.27
2016-05-15T00:26:12.270Z,80.18
2016-05-15T00:26:22.132Z,80.14
2016-05-15T00:26:32.272Z,80.08
2016-05-15T00:26:42.272Z,80.27
2016-05-15T00:26:52.288Z,80.46
2016-05-15T00:27:02.288Z,80.46
2016-05-15T00:27:12.147Z,80.56
2016-05-15T00:27:22.306Z,80.43
2016-05-15T00:27:32.150Z,80.18
2016-05-15T00:27:42.306Z,80.04
2016-05-15T00:27:52.306Z,80.08
2016-05-15T00:28:02.166Z,80.18
2016-05-15T00:28:12.322Z,80.08
2016-05-15T00:28:22.168Z,80.27
2016-05-15T00:28:32.324Z,80.27
2016-05-15T00:28:42.324Z,80.27
2016-05-15T00:28:52.340Z,80.18
2016-05-15T00:29:02.340Z,79.99
2016-05-15T00:29:12.199Z,80.18
2016-05-15T00:29:22.358Z,79.95
2016-05-15T00:29:32.358Z,79.99
2016-05-15T00:29:42.202Z,79.99
2016-05-15T00:29:52.358Z,80.65
2016-05-15T00:30:02.374Z,80.84
2016-05-15T00:30:12.218Z,80.08
2016-05-15T00:30:22.377Z,80.08
2016-05-15T00:30:32.377Z,80.27
2016-05-15T00:30:42.377Z,80.18
2016-05-15T00:30:52.377Z,80.18
2016-05-15T00:31:02.236Z,80.08
2016-05-15T00:31:12.393Z,79.99
2016-05-15T00:31:22.255Z,80.43
2016-05-15T00:31:32.411Z,80.08
2016-05-15T00:31:42.396Z,80.56
2016-05-15T00:31:52.411Z,80.46
2016-05-15T00:32:02.255Z,80.56
2016-05-15T00:32:12.411Z,80.65
2016-05-15T00:32:22.274Z,80.37
2016-05-15T00:32:32.461Z,80.27
2016-05-15T00:32:42.430Z,80.27
2016-05-15T00:32:52.430Z,80.56
2016-05-15T00:33:02.445Z,80.37
2016-05-15T00:33:12.445Z,80.33
2016-05-15T00:33:22.447Z,80.27
2016-05-15T00:33:32.447Z,80.37
2016-05-15T00:33:42.838Z,80.65
2016-05-15T00:33:52.463Z,80.46
2016-05-15T00:34:02.463Z,80.46
2016-05-15T00:34:12.479Z,80.33
2016-05-15T00:34:22.341Z,81.09
2016-05-15T00:34:32.482Z,81.04
2016-05-15T00:34:42.482Z,80.99
2016-05-15T00:34:52.325Z,80.33
2016-05-15T00:35:02.497Z,80.9
2016-05-15T00:35:12.341Z,80.37
2016-05-15T00:35:22.343Z,80.75
2016-05-15T00:35:32.343Z,80.65
2016-05-15T00:35:42.343Z,80.8
2016-05-15T00:35:52.499Z,80.84
2016-05-15T00:36:02.359Z,80.8
2016-05-15T00:36:12.515Z,80.75
2016-05-15T00:36:22.534Z,80.84
2016-05-15T00:36:32.534Z,80.9
2016-05-15T00:36:42.534Z,80.84
2016-05-15T00:36:52.534Z,80.94
2016-05-15T00:37:02.534Z,80.84
2016-05-15T00:37:12.393Z,80.84
2016-05-15T00:37:22.552Z,80.8
2016-05-15T00:37:32.552Z,80.84
2016-05-15T00:37:42.552Z,80.8
2016-05-15T00:37:52.568Z,80.71
2016-05-15T00:38:02.568Z,80.75
2016-05-15T00:38:12.568Z,80.75
2016-05-15T00:38:22.570Z,80.9
2016-05-15T00:38:32.570Z,80.71
2016-05-15T00:38:42.585Z,80.8
2016-05-15T00:38:52.601Z,80.8
2016-05-15T00:39:02.585Z,80.94
2016-05-15T00:39:12.585Z,80.75
2016-05-15T00:39:22.604Z,80.71
2016-05-15T00:39:32.604Z,80.9
2016-05-15T00:39:42.604Z,80.99
2016-05-15T00:39:52.620Z,80.99
2016-05-15T00:40:02.620Z,80.99
2016-05-15T00:40:12.620Z,80.71
2016-05-15T00:40:22.623Z,80.75
2016-05-15T00:40:32.623Z,80.8
2016-05-15T00:40:42.482Z,80.8
2016-05-15T00:40:52.482Z,80.52
2016-05-15T00:41:02.482Z,80.52
2016-05-15T00:41:12.654Z,80.62
2016-05-15T00:41:22.656Z,80.62
2016-05-15T00:41:32.500Z,80.43
2016-05-15T00:41:42.500Z,80.62
2016-05-15T00:41:52.515Z,80.9
2016-05-15T00:42:02.515Z,80.62
2016-05-15T00:42:12.672Z,80.65
2016-05-15T00:42:22.675Z,80.99
2016-05-15T00:42:32.690Z,80.71
2016-05-15T00:42:42.534Z,80.71
2016-05-15T00:42:52.690Z,80.52
2016-05-15T00:43:02.690Z,80.52
2016-05-15T00:43:12.690Z,80.71
2016-05-15T00:43:22.693Z,81.09
2016-05-15T00:43:32.709Z,81.18
2016-05-15T00:43:42.709Z,80.52
2016-05-15T00:43:52.709Z,80.75
2016-05-15T00:44:02.709Z,80.52
2016-05-15T00:44:12.724Z,80.75
2016-05-15T00:44:22.727Z,80.8
2016-05-15T00:44:32.571Z,80.71
2016-05-15T00:44:42.743Z,81.27
2016-05-15T00:44:52.743Z,81.27
2016-05-15T00:45:02.743Z,81.27
2016-05-15T00:45:12.743Z,80.8
2016-05-15T00:45:22.761Z,81.37
2016-05-15T00:45:32.761Z,80.71
2016-05-15T00:45:42.761Z,81.18
2016-05-15T00:45:52.761Z,81.18
2016-05-15T00:46:02.776Z,81.37
2016-05-15T00:46:12.995Z,81.37
2016-05-15T00:46:22.779Z,81.18
2016-05-15T00:46:32.779Z,81.47
2016-05-15T00:46:42.779Z,81.09
2016-05-15T00:46:52.779Z,81.18
2016-05-15T00:47:02.795Z,81.18
2016-05-15T00:47:12.795Z,81.18
2016-05-15T00:47:22.798Z,81.27
2016-05-15T00:47:32.798Z,81.27
2016-05-15T00:47:42.814Z,80.9
2016-05-15T00:47:52.814Z,80.99
2016-05-15T00:48:02.829Z,81.18
2016-05-15T00:48:12.829Z,80.99
2016-05-15T00:48:22.831Z,80.99
2016-05-15T00:48:32.956Z,80.99
2016-05-15T00:48:42.862Z,80.99
2016-05-15T00:48:52.831Z,80.99
2016-05-15T00:49:03.503Z,81.09
2016-05-15T00:49:13.253Z,81.18
2016-05-15T00:49:22.866Z,80.99
2016-05-15T00:49:32.851Z,81.18
2016-05-15T00:49:42.851Z,80.99
2016-05-15T00:49:52.866Z,81.09
2016-05-15T00:50:02.866Z,81.09
2016-05-15T00:50:12.866Z,81.09
2016-05-15T00:50:22.868Z,81.18
2016-05-15T00:50:32.712Z,81.09
2016-05-15T00:50:42.884Z,81.18
2016-05-15T00:50:52.884Z,81.09
2016-05-15T00:51:02.884Z,81.09
2016-05-15T00:51:12.900Z,80.8
2016-05-15T00:51:22.903Z,80.99
2016-05-15T00:51:32.746Z,80.8
2016-05-15T00:51:42.762Z,81.18
2016-05-15T00:51:52.918Z,80.9
2016-05-15T00:52:02.918Z,80.99
2016-05-15T00:52:12.918Z,80.99
2016-05-15T00:52:22.936Z,80.99
2016-05-15T00:52:32.936Z,80.99
2016-05-15T00:52:42.936Z,81.09
2016-05-15T00:52:52.795Z,81.18
2016-05-15T00:53:02.936Z,81.18
2016-05-15T00:53:12.952Z,81.23
2016-05-15T00:53:22.939Z,81.09
2016-05-15T00:53:32.955Z,81.09
2016-05-15T00:53:42.798Z,81.18
2016-05-15T00:53:52.970Z,81.18
2016-05-15T00:54:02.955Z,81.09
2016-05-15T00:54:13.033Z,80.8
2016-05-15T00:54:22.988Z,80.8
2016-05-15T00:54:32.972Z,81.09
2016-05-15T00:54:42.988Z,81.18
2016-05-15T00:54:53.003Z,81.09
2016-05-15T00:55:02.988Z,80.99
2016-05-15T00:55:13.003Z,80.99
2016-05-15T00:55:23.006Z,80.9
2016-05-15T00:55:33.006Z,80.99
2016-05-15T00:55:43.006Z,80.99
2016-05-15T00:55:53.022Z,80.99
2016-05-15T00:56:03.022Z,80.9
2016-05-15T00:56:13.022Z,80.8
2016-05-15T00:56:22.869Z,81.09
2016-05-15T00:56:33.025Z,81.27
2016-05-15T00:56:43.041Z,81.27
2016-05-15T00:56:53.041Z,81.37
2016-05-15T00:57:03.041Z,81.27
2016-05-15T00:57:13.041Z,81.18
2016-05-15T00:57:23.044Z,81.37
2016-05-15T00:57:32.903Z,81.18
2016-05-15T00:57:43.059Z,81.56
2016-05-15T00:57:53.059Z,80.8
2016-05-15T00:58:03.059Z,81.18
2016-05-15T00:58:13.059Z,81.18
2016-05-15T00:58:23.077Z,81.09
2016-05-15T00:58:33.077Z,81.37
2016-05-15T00:58:43.093Z,81.18
2016-05-15T00:58:53.093Z,81.27
2016-05-15T00:59:03.093Z,81.09
2016-05-15T00:59:13.093Z,81.18
2016-05-15T00:59:23.096Z,81.18
2016-05-15T00:59:32.955Z,81.27
2016-05-15T00:59:43.111Z,81.18
2016-05-15T00:59:53.111Z,81.27
2016-05-15T01:00:03.111Z,81.27
2016-05-15T01:00:13.111Z,81.27
2016-05-15T01:00:22.974Z,81.56
2016-05-15T01:00:33.130Z,81.47
2016-05-15T01:00:43.130Z,81.56
2016-05-15T01:00:53.145Z,81.27
2016-05-15T01:01:03.145Z,81.18
2016-05-15T01:01:13.145Z,81.27
2016-05-15T01:01:23.163Z,81.18
2016-05-15T01:01:33.147Z,81.37
2016-05-15T01:01:43.147Z,81.18
2016-05-15T01:01:53.163Z,81.66
2016-05-15T01:02:03.163Z,81.66
2016-05-15T01:02:13.163Z,81.47
2016-05-15T01:02:23.182Z,81.66
2016-05-15T01:02:33.182Z,81.66
2016-05-15T01:02:43.182Z,81.66
2016-05-15T01:02:53.182Z,81.66
2016-05-15T01:03:40.982Z,81.37
2016-05-15T01:03:45.872Z,81.27
2016-05-15T01:03:55.825Z,81.66
2016-05-15T01:04:05.825Z,81.41
2016-05-15T01:04:16.122Z,81.56
2016-05-15T01:04:26.125Z,81.37
2016-05-15T01:04:35.844Z,81.66
2016-05-15T01:04:45.844Z,81.37
2016-05-15T01:04:55.844Z,81.66
2016-05-15T01:05:05.844Z,81.27
2016-05-15T01:05:15.703Z,81.27
2016-05-15T01:05:25.705Z,81.56
2016-05-15T01:05:35.862Z,81.37
2016-05-15T01:05:45.877Z,81.27
2016-05-15T01:05:55.877Z,81.56
2016-05-15T01:06:05.721Z,81.18
2016-05-15T01:06:15.877Z,81.66
2016-05-15T01:06:25.740Z,81.66
2016-05-15T01:06:35.896Z,81.66
2016-05-15T01:06:45.896Z,81.37
2016-05-15T01:06:55.896Z,81.37
2016-05-15T01:07:05.911Z,81.66
2016-05-15T01:07:15.911Z,81.66
2016-05-15T01:07:25.914Z,81.79
2016-05-15T01:07:35.914Z,81.56
2016-05-15T01:07:45.914Z,81.66
2016-05-15T01:07:55.774Z,81.85
2016-05-15T01:08:05.930Z,81.47
2016-05-15T01:08:15.930Z,81.56
2016-05-15T01:08:25.932Z,81.37
2016-05-15T01:08:35.791Z,81.37
2016-05-15T01:08:45.948Z,81.56
2016-05-15T01:08:55.948Z,81.37
2016-05-15T01:09:05.948Z,81.56
2016-05-15T01:09:15.948Z,81.47
2016-05-15T01:09:25.966Z,81.27
2016-05-15T01:09:35.966Z,81.27
2016-05-15T01:09:45.982Z,81.37
2016-05-15T01:09:55.966Z,81.37
2016-05-15T01:10:05.982Z,81.41
2016-05-15T01:10:15.982Z,81.37
2016-05-15T01:10:25.985Z,81.47
2016-05-15T01:10:35.985Z,81.56
2016-05-15T01:10:46.001Z,81.66
2016-05-15T01:10:56.001Z,81.66
2016-05-15T01:11:06.001Z,81.47
2016-05-15T01:11:16.001Z,81.37
2016-05-15T01:11:26.004Z,81.47
2016-05-15T01:11:36.019Z,81.47
2016-05-15T01:11:46.035Z,81.47
2016-05-15T01:11:56.019Z,81.66
2016-05-15T01:12:06.035Z,81.47
2016-05-15T01:12:16.035Z,81.66
2016-05-15T01:12:26.037Z,81.56
2016-05-15T01:12:36.037Z,81.66
2016-05-15T01:12:46.052Z,81.47
2016-05-15T01:12:56.271Z,81.66
2016-05-15T01:13:06.052Z,81.47
2016-05-15T01:13:16.052Z,81.47
2016-05-15T01:13:26.055Z,81.47
2016-05-15T01:13:36.071Z,81.66
2016-05-15T01:13:46.071Z,81.66
2016-05-15T01:13:56.071Z,81.75
2016-05-15T01:14:06.071Z,81.47
2016-05-15T01:14:16.087Z,81.66
2016-05-15T01:14:26.089Z,81.66
2016-05-15T01:14:36.089Z,81.66
2016-05-15T01:14:46.104Z,81.66
2016-05-15T01:14:56.104Z,81.66
2016-05-15T01:15:06.104Z,81.94
2016-05-15T01:15:16.104Z,81.94
2016-05-15T01:15:25.967Z,81.56
2016-05-15T01:15:36.107Z,81.66
2016-05-15T01:15:46.123Z,81.7
2016-05-15T01:15:56.123Z,81.66
2016-05-15T01:16:06.123Z,81.66
2016-05-15T01:16:16.139Z,81.66
2016-05-15T01:16:26.142Z,81.66
2016-05-15T01:16:36.142Z,81.66
2016-05-15T01:16:46.157Z,81.56
2016-05-15T01:16:56.001Z,81.66
2016-05-15T01:17:06.001Z,81.66
2016-05-15T01:17:16.157Z,81.47
2016-05-15T01:17:26.175Z,81.66
2016-05-15T01:17:36.003Z,81.66
2016-05-15T01:17:46.175Z,81.66
2016-05-15T01:17:56.175Z,81.66
2016-05-15T01:18:06.175Z,81.56
2016-05-15T01:18:16.175Z,81.66
2016-05-15T01:18:26.193Z,81.56
2016-05-15T01:18:36.193Z,81.47
2016-05-15T01:18:46.209Z,81.66
2016-05-15T01:18:56.318Z,81.47
2016-05-15T01:19:06.209Z,81.56
2016-05-15T01:19:16.225Z,81.47
2016-05-15T01:19:26.275Z,81.47
2016-05-15T01:19:36.056Z,81.47
2016-05-15T01:19:46.228Z,81.75
2016-05-15T01:19:56.228Z,81.85
2016-05-15T01:20:06.228Z,81.66
2016-05-15T01:20:16.243Z,81.85
2016-05-15T01:20:26.230Z,81.66
2016-05-15T01:20:36.245Z,81.66
2016-05-15T01:20:46.089Z,81.66
2016-05-15T01:20:56.245Z,81.85
2016-05-15T01:21:06.261Z,81.66
2016-05-15T01:21:16.261Z,81.75
2016-05-15T01:21:26.265Z,82.04
2016-05-15T01:21:36.281Z,82.13
2016-05-15T01:21:46.124Z,82.13
2016-05-15T01:21:56.281Z,82.13
2016-05-15T01:22:06.281Z,81.85
2016-05-15T01:22:16.281Z,81.85
2016-05-15T01:22:26.283Z,82.13
2016-05-15T01:22:36.298Z,82.04
2016-05-15T01:22:46.298Z,82.13
2016-05-15T01:22:56.298Z,81.85
2016-05-15T01:23:06.298Z,82.23
2016-05-15T01:23:16.314Z,81.85
2016-05-15T01:23:26.301Z,82.13
2016-05-15T01:23:36.317Z,82.13
2016-05-15T01:23:46.317Z,82.13
2016-05-15T01:23:56.332Z,82.23
2016-05-15T01:24:06.317Z,82.23
2016-05-15T01:24:16.176Z,81.94
2016-05-15T01:24:26.334Z,82.13
2016-05-15T01:24:36.334Z,81.75
2016-05-15T01:24:46.350Z,81.94
2016-05-15T01:24:56.350Z,82.13
2016-05-15T01:25:06.350Z,81.94
2016-05-15T01:25:16.350Z,82.13
2016-05-15T01:25:26.369Z,82.13
2016-05-15T01:25:36.384Z,82.04
2016-05-15T01:25:46.369Z,82.04
2016-05-15T01:25:56.384Z,82.04
2016-05-15T01:26:06.369Z,82.04
2016-05-15T01:26:16.384Z,81.94
2016-05-15T01:26:26.387Z,82.04
2016-05-15T01:26:36.403Z,81.94
2016-05-15T01:26:46.403Z,82.04
2016-05-15T01:26:56.403Z,82.04
2016-05-15T01:27:06.403Z,81.94
2016-05-15T01:27:16.419Z,81.75
2016-05-15T01:27:26.405Z,82.04
2016-05-15T01:27:36.421Z,81.85
2016-05-15T01:27:46.421Z,81.75
2016-05-15T01:27:56.421Z,81.85
2016-05-15T01:28:06.280Z,81.94
2016-05-15T01:28:16.436Z,82.13
2016-05-15T01:28:26.439Z,82.23
2016-05-15T01:28:36.439Z,82.13
2016-05-15T01:28:46.439Z,82.04
2016-05-15T01:28:56.455Z,82.13
2016-05-15T01:29:06.470Z,81.94
2016-05-15T01:29:16.486Z,81.75
2016-05-15T01:29:26.473Z,82.6
2016-05-15T01:29:36.473Z,82.51
2016-05-15T01:29:46.473Z,82.6
2016-05-15T01:29:56.473Z,82.51
2016-05-15T01:30:06.473Z,82.42
2016-05-15T01:30:16.489Z,82.42
2016-05-15T01:30:26.491Z,82.51
2016-05-15T01:30:36.491Z,82.51
2016-05-15T01:30:46.491Z,82.6
2016-05-15T01:30:56.491Z,82.7
2016-05-15T01:31:06.507Z,82.32
2016-05-15T01:31:16.507Z,82.42
2016-05-15T01:31:26.510Z,82.42
2016-05-15T01:31:36.369Z,82.51
2016-05-15T01:31:46.525Z,82.32
2016-05-15T01:31:56.525Z,82.23
2016-05-15T01:32:06.385Z,82.23
2016-05-15T01:32:16.525Z,82.23
2016-05-15T01:32:26.544Z,82.32
2016-05-15T01:32:36.544Z,82.42
2016-05-15T01:32:46.544Z,82.32
2016-05-15T01:32:56.544Z,82.42
2016-05-15T01:33:06.560Z,82.13
2016-05-15T01:33:16.560Z,82.23
2016-05-15T01:33:26.563Z,82.42
2016-05-15T01:33:36.578Z,82.7
2016-05-15T01:33:46.578Z,82.79
2016-05-15T01:33:56.578Z,82.6
2016-05-15T01:34:06.438Z,82.42
2016-05-15T01:34:16.578Z,82.6
2016-05-15T01:34:27.033Z,82.79
2016-05-15T01:34:36.580Z,82.51
2016-05-15T01:34:46.596Z,82.6
2016-05-15T01:34:56.596Z,82.51
2016-05-15T01:35:06.611Z,82.51
2016-05-15T01:35:16.611Z,82.51
2016-05-15T01:35:26.614Z,82.51
2016-05-15T01:35:36.614Z,82.6
2016-05-15T01:35:46.614Z,82.51
2016-05-15T01:35:56.630Z,82.51
2016-05-15T01:36:06.646Z,82.51
2016-05-15T01:36:16.630Z,82.51
2016-05-15T01:36:26.649Z,82.6
2016-05-15T01:36:36.649Z,82.51
2016-05-15T01:36:46.649Z,82.89
2016-05-15T01:36:56.649Z,82.7
2016-05-15T01:37:06.649Z,82.7
2016-05-15T01:37:16.664Z,82.79
2016-05-15T01:37:26.666Z,82.42
2016-05-15T01:37:36.666Z,82.6
2016-05-15T01:37:46.666Z,82.7
2016-05-15T01:37:56.666Z,82.42
2016-05-15T01:38:06.682Z,82.51
2016-05-15T01:38:16.682Z,82.6
2016-05-15T01:38:26.685Z,82.79
2016-05-15T01:38:36.701Z,82.51
2016-05-15T01:38:46.685Z,82.6
2016-05-15T01:38:56.701Z,82.6
2016-05-15T01:39:06.701Z,82.79
2016-05-15T01:39:16.716Z,82.42
2016-05-15T01:39:26.719Z,82.23
2016-05-15T01:39:36.719Z,82.42
2016-05-15T01:39:46.719Z,82.32
2016-05-15T01:39:56.719Z,82.42
2016-05-15T01:40:06.735Z,82.32
2016-05-15T01:40:16.735Z,82.42
2016-05-15T01:40:26.737Z,82.32
2016-05-15T01:40:36.737Z,82.32
2016-05-15T01:40:46.752Z,82.23
2016-05-15T01:40:56.752Z,82.23
2016-05-15T01:41:06.752Z,82.42
2016-05-15T01:41:16.612Z,82.23
2016-05-15T01:41:26.771Z,82.32
2016-05-15T01:41:36.771Z,82.42
2016-05-15T01:41:46.771Z,82.42
2016-05-15T01:41:56.771Z,82.32
2016-05-15T01:42:06.771Z,82.42
2016-05-15T01:42:16.787Z,82.51
2016-05-15T01:42:26.789Z,82.7
2016-05-15T01:42:36.789Z,82.79
2016-05-15T01:42:46.789Z,82.7
2016-05-15T01:42:56.804Z,82.7
2016-05-15T01:43:06.648Z,82.7
2016-05-15T01:43:16.804Z,82.7
2016-05-15T01:43:26.807Z,82.7
2016-05-15T01:43:36.807Z,82.51
2016-05-15T01:43:46.823Z,82.42
2016-05-15T01:43:56.823Z,82.51
2016-05-15T01:44:06.823Z,82.7
2016-05-15T01:44:16.823Z,82.79
2016-05-15T01:44:26.842Z,82.79
2016-05-15T01:44:36.857Z,82.32
2016-05-15T01:44:46.842Z,82.32
2016-05-15T01:44:56.701Z,82.51
2016-05-15T01:45:06.842Z,82.42
2016-05-15T01:45:16.857Z,82.6
2016-05-15T01:45:26.859Z,82.32
2016-05-15T01:45:36.875Z,82.42
2016-05-15T01:45:46.875Z,82.42
2016-05-15T01:45:56.875Z,82.51
2016-05-15T01:46:06.875Z,82.32
2016-05-15T01:46:16.719Z,82.32
2016-05-15T01:46:26.893Z,82.32
2016-05-15T01:46:36.893Z,82.23
2016-05-15T01:46:46.909Z,82.32
2016-05-15T01:46:56.909Z,82.23
2016-05-15T01:47:06.753Z,82.23
2016-05-15T01:47:16.909Z,82.32
2016-05-15T01:47:26.928Z,82.32
2016-05-15T01:47:36.912Z,82.51
2016-05-15T01:47:46.912Z,82.23
2016-05-15T01:47:56.928Z,82.42
2016-05-15T01:48:06.928Z,82.23
2016-05-15T01:48:16.928Z,82.23
2016-05-15T01:48:26.962Z,82.32
2016-05-15T01:48:36.962Z,82.51
2016-05-15T01:48:46.946Z,82.6
2016-05-15T01:48:56.790Z,82.42
2016-05-15T01:49:06.806Z,82.79
2016-05-15T01:49:17.259Z,82.6
2016-05-15T01:49:26.965Z,82.51
2016-05-15T01:49:36.965Z,82.7
2016-05-15T01:49:46.965Z,82.42
2016-05-15T01:49:56.965Z,82.51
2016-05-15T01:50:06.981Z,82.6
2016-05-15T01:50:16.840Z,82.32
2016-05-15T01:50:26.983Z,82.6
2016-05-15T01:50:36.983Z,82.6
2016-05-15T01:50:46.998Z,82.89
2016-05-15T01:50:56.842Z,82.51
2016-05-15T01:51:07.014Z,82.42
2016-05-15T01:51:16.858Z,82.6
2016-05-15T01:51:27.017Z,82.32
2016-05-15T01:51:37.017Z,82.42
2016-05-15T01:51:47.017Z,82.42
2016-05-15T01:51:57.017Z,82.42
2016-05-15T01:52:07.017Z,82.42
2016-05-15T01:52:17.032Z,82.51
2016-05-15T01:52:27.034Z,82.51
2016-05-15T01:52:37.050Z,82.51
2016-05-15T01:52:47.050Z,82.42
2016-05-15T01:52:56.894Z,82.6
2016-05-15T01:53:07.050Z,82.42
2016-05-15T01:53:17.050Z,82.32
2016-05-15T01:53:27.054Z,82.51
2016-05-15T01:53:37.070Z,82.51
2016-05-15T01:53:47.070Z,82.6
2016-05-15T01:53:57.070Z,82.89
2016-05-15T01:54:07.085Z,82.42
2016-05-15T01:54:16.929Z,82.89
2016-05-15T01:54:27.087Z,82.98
2016-05-15T01:54:37.087Z,82.6
2016-05-15T01:54:47.087Z,82.51
2016-05-15T01:54:56.947Z,82.6
2016-05-15T01:55:07.103Z,82.51
2016-05-15T01:55:17.103Z,82.6
2016-05-15T01:55:27.106Z,82.6
2016-05-15T01:55:37.122Z,82.42
2016-05-15T01:55:47.122Z,82.89
2016-05-15T01:55:57.122Z,82.42
2016-05-15T01:56:07.137Z,82.89
2016-05-15T01:56:17.137Z,82.89
2016-05-15T01:56:27.139Z,82.6
2016-05-15T01:56:37.139Z,82.89
2016-05-15T01:56:47.139Z,82.51
2016-05-15T01:56:57.139Z,82.98
2016-05-15T01:57:07.155Z,82.32
2016-05-15T01:57:17.155Z,82.51
2016-05-15T01:57:27.158Z,82.51
2016-05-15T01:57:37.017Z,82.51
2016-05-15T01:57:47.173Z,82.32
2016-05-15T01:57:57.173Z,82.7
2016-05-15T01:58:07.173Z,82.51
2016-05-15T01:58:17.033Z,82.51
2016-05-15T01:58:27.192Z,82.51
2016-05-15T01:58:37.192Z,82.51
2016-05-15T01:58:47.208Z,82.51
2016-05-15T01:58:57.192Z,82.51
2016-05-15T01:59:07.192Z,82.6
2016-05-15T01:59:17.051Z,82.6
2016-05-15T01:59:27.210Z,82.51
2016-05-15T01:59:37.210Z,82.51
2016-05-15T01:59:47.225Z,82.51
2016-05-15T01:59:57.225Z,82.51
2016-05-15T02:00:07.225Z,82.42
2016-05-15T02:00:17.225Z,82.51
2016-05-15T02:00:27.228Z,82.51
2016-05-15T02:00:37.244Z,82.51
2016-05-15T02:00:47.244Z,82.79
2016-05-15T02:00:57.244Z,82.7
2016-05-15T02:01:07.260Z,82.7
2016-05-15T02:01:17.260Z,82.42
2016-05-15T02:01:27.263Z,82.7
2016-05-15T02:01:37.263Z,82.7
2016-05-15T02:01:47.263Z,82.32
2016-05-15T02:01:57.278Z,82.42
2016-05-15T02:02:07.278Z,82.42
2016-05-15T02:02:17.278Z,82.32
2016-05-15T02:02:27.297Z,82.32
2016-05-15T02:02:37.141Z,82.32
2016-05-15T02:02:47.141Z,82.32
2016-05-15T02:02:57.141Z,82.23
2016-05-15T02:03:07.297Z,82.23
2016-05-15T02:03:17.297Z,82.42
2016-05-15T02:03:27.314Z,82.42
2016-05-15T02:03:37.330Z,82.23
2016-05-15T02:03:47.361Z,82.42
2016-05-15T02:03:57.314Z,82.32
2016-05-15T02:04:07.330Z,82.6
2016-05-15T02:04:17.174Z,82.6
2016-05-15T02:04:27.489Z,82.51
2016-05-15T02:04:37.333Z,82.6
2016-05-15T02:04:47.349Z,82.6
2016-05-15T02:04:57.349Z,82.6
2016-05-15T02:05:07.349Z,82.42
2016-05-15T02:05:17.349Z,82.42
2016-05-15T02:05:27.366Z,82.42
2016-05-15T02:05:37.366Z,82.55
2016-05-15T02:05:47.366Z,82.6
2016-05-15T02:05:57.366Z,82.6
2016-05-15T02:06:07.226Z,82.6
2016-05-15T02:06:17.382Z,82.51
2016-05-15T02:06:27.385Z,82.42
2016-05-15T02:06:37.229Z,82.6
2016-05-15T02:06:47.416Z,82.6
2016-05-15T02:06:57.401Z,82.42
2016-05-15T02:07:07.401Z,82.6
2016-05-15T02:07:17.401Z,82.7
2016-05-15T02:07:27.404Z,82.32
2016-05-15T02:07:37.419Z,82.42
2016-05-15T02:07:47.419Z,82.32
2016-05-15T02:07:57.419Z,82.32
2016-05-15T02:08:07.419Z,82.42
2016-05-15T02:08:17.279Z,82.23
2016-05-15T02:08:27.437Z,82.32
2016-05-15T02:08:37.437Z,82.51
2016-05-15T02:08:47.296Z,82.51
2016-05-15T02:08:57.452Z,82.32
2016-05-15T02:09:07.452Z,82.98
2016-05-15T02:09:17.452Z,82.98
2016-05-15T02:09:27.456Z,82.79
2016-05-15T02:09:37.472Z,82.98
2016-05-15T02:09:47.472Z,82.7
2016-05-15T02:09:57.472Z,82.7